createdAt,value
2019-01-03T00:01:22.420Z,21.53
2019-01-03T00:04:18.549Z,22.60
2019-01-03T00:07:12.767Z,21.45
2019-01-03T00:09:58.930Z,16.23
2019-01-03T00:12:40.403Z,16.70
2019-01-03T00:15:20.414Z,18.37
2019-01-03T00:18:16.802Z,18.35
2019-01-03T00:20:55.461Z,23.63
2019-01-03T00:23:50.630Z,23.87
2019-01-03T00:26:53.597Z,18.13
2019-01-03T00:29:45.425Z,23.90
2019-01-03T00:32:40.658Z,19.03
2019-01-03T00:35:46.619Z,21.02
2019-01-03T00:38:37.796Z,22.27
2019-01-03T00:41:28.549Z,21.80
2019-01-03T00:44:18.208Z,19.40
2019-01-03T00:47:10.856Z,15.47
2019-01-03T00:50:02.283Z,16.20
2019-01-03T00:52:42.556Z,16.13
2019-01-03T00:55:41.121Z,19.73
2019-01-03T00:58:35.511Z,20.93
2019-01-03T01:01:45.056Z,20.33
2019-01-03T01:04:41.491Z,16.17
2019-01-03T01:07:38.234Z,15.20
2019-01-03T01:10:35.182Z,20.75
2019-01-03T01:13:14.028Z,22.20
2019-01-03T01:15:53.290Z,29.67
2019-01-03T01:18:41.804Z,24.70
2019-01-03T01:21:31.881Z,35.00
2019-01-03T01:24:26.895Z,25.70
2019-01-03T01:27:09.259Z,18.13
2019-01-03T01:29:48.063Z,15.80
2019-01-03T01:32:37.925Z,17.73
2019-01-03T01:35:17.901Z,16.73
2019-01-03T01:38:04.863Z,15.03
2019-01-03T01:40:43.683Z,21.15
2019-01-03T01:43:21.978Z,15.00
2019-01-03T01:46:19.253Z,21.90
2019-01-03T01:49:15.995Z,21.35
2019-01-03T01:52:24.416Z,22.90
2019-01-03T01:55:13.473Z,22.90
2019-01-03T01:57:52.508Z,24.33
2019-01-03T02:00:32.030Z,25.30
2019-01-03T02:03:18.858Z,19.87
2019-01-03T02:06:05.341Z,21.33
2019-01-03T02:08:44.800Z,19.03
2019-01-03T02:11:32.832Z,19.47
2019-01-03T02:14:12.355Z,23.08
2019-01-03T02:17:23.348Z,23.23
2019-01-03T02:20:20.747Z,25.40
2019-01-03T02:23:27.947Z,21.80
2019-01-03T02:26:18.734Z,17.08
2019-01-03T02:29:12.222Z,12.87
2019-01-03T02:31:52.774Z,16.93
2019-01-03T02:34:31.609Z,15.50
2019-01-03T02:37:28.865Z,17.10
2019-01-03T02:40:26.836Z,19.63
2019-01-03T02:43:17.440Z,16.60
2019-01-03T02:46:06.155Z,12.67
2019-01-03T02:48:53.514Z,18.60
2019-01-03T02:51:46.366Z,16.00
2019-01-03T02:54:25.152Z,18.50
2019-01-03T02:57:18.398Z,18.47
2019-01-03T03:00:14.171Z,21.23
2019-01-03T03:03:06.384Z,17.60
2019-01-03T03:06:01.851Z,16.07
2019-01-03T03:08:57.338Z,22.27
2019-01-03T03:11:36.845Z,21.67
2019-01-03T03:14:15.658Z,18.27
2019-01-03T03:17:08.454Z,20.80
2019-01-03T03:19:52.015Z,28.47
2019-01-03T03:22:44.752Z,22.50
2019-01-03T03:25:23.309Z,14.00
2019-01-03T03:28:02.069Z,19.87
2019-01-03T03:30:40.429Z,16.57
2019-01-03T03:33:19.839Z,25.77
2019-01-03T03:36:15.239Z,17.93
2019-01-03T03:39:13.520Z,20.03
2019-01-03T03:42:22.383Z,22.40
2019-01-03T03:45:16.840Z,16.37
2019-01-03T03:48:11.494Z,19.42
2019-01-03T03:51:04.096Z,18.43
2019-01-03T03:53:52.251Z,26.37
2019-01-03T03:56:38.325Z,24.03
2019-01-03T03:59:36.803Z,27.50
2019-01-03T04:02:44.402Z,22.05
2019-01-03T04:05:53.110Z,24.55
2019-01-03T04:08:44.032Z,21.67
2019-01-03T04:11:22.549Z,20.83
2019-01-03T04:14:16.866Z,18.10
2019-01-03T04:17:13.240Z,20.47
2019-01-03T04:20:10.947Z,23.67
2019-01-03T04:23:17.471Z,24.35
2019-01-03T04:25:56.691Z,18.63
2019-01-03T04:28:49.676Z,16.97
2019-01-03T04:31:28.320Z,21.97
2019-01-03T04:34:23.736Z,20.13
2019-01-03T04:37:12.894Z,24.80
2019-01-03T04:40:01.868Z,26.85
2019-01-03T04:42:55.264Z,26.23
2019-01-03T04:45:51.667Z,26.30
2019-01-03T04:48:30.252Z,20.62
2019-01-03T04:51:23.647Z,30.47
2019-01-03T04:54:20.599Z,26.03
2019-01-03T04:57:10.702Z,22.50
2019-01-03T05:00:04.464Z,18.13
2019-01-03T05:03:10.629Z,18.17
2019-01-03T05:06:14.949Z,19.23
2019-01-03T05:09:04.160Z,21.60
2019-01-03T05:11:42.905Z,25.80
2019-01-03T05:14:35.897Z,22.53
2019-01-03T05:17:30.587Z,20.63
2019-01-03T05:20:31.101Z,43.10
2019-01-03T05:23:10.731Z,28.07
2019-01-03T05:26:03.207Z,26.70
2019-01-03T05:28:57.492Z,23.03
2019-01-03T05:31:51.156Z,25.48
2019-01-03T05:34:43.819Z,22.40
2019-01-03T05:37:36.260Z,22.70
2019-01-03T05:40:37.263Z,26.73
2019-01-03T05:43:26.391Z,23.87
2019-01-03T05:46:17.074Z,27.92
2019-01-03T05:49:09.512Z,23.27
2019-01-03T05:51:48.676Z,21.07
2019-01-03T05:54:43.137Z,19.27
2019-01-03T05:57:51.487Z,28.25
2019-01-03T06:00:40.669Z,19.98
2019-01-03T06:03:34.253Z,20.30
2019-01-03T06:06:36.663Z,30.52
2019-01-03T06:09:15.370Z,28.70
2019-01-03T06:11:59.023Z,21.70
2019-01-03T06:14:39.399Z,20.90
2019-01-03T06:17:33.396Z,21.00
2019-01-03T06:20:42.210Z,19.85
2019-01-03T06:23:36.987Z,21.90
2019-01-03T06:26:15.768Z,26.10
2019-01-03T06:29:08.970Z,24.53
2019-01-03T06:32:03.477Z,17.97
2019-01-03T06:34:59.745Z,24.70
2019-01-03T06:37:54.082Z,25.12
2019-01-03T06:40:47.057Z,19.80
2019-01-03T06:43:42.041Z,28.00
2019-01-03T06:46:50.668Z,26.05
2019-01-03T06:49:41.650Z,22.13
2019-01-03T06:52:41.286Z,25.13
2019-01-03T06:55:23.693Z,29.27
2019-01-03T06:58:02.713Z,29.53
2019-01-03T07:00:51.135Z,27.77
2019-01-03T07:03:31.370Z,33.77
2019-01-03T07:06:24.178Z,29.00
2019-01-03T07:09:17.011Z,21.67
2019-01-03T07:12:07.630Z,27.83
2019-01-03T07:14:58.846Z,26.00
2019-01-03T07:17:55.590Z,29.67
2019-01-03T07:20:59.706Z,33.58
2019-01-03T07:23:48.904Z,26.33
2019-01-03T07:26:27.620Z,33.70
2019-01-03T07:29:21.173Z,31.27
2019-01-03T07:32:15.051Z,30.00
2019-01-03T07:34:53.754Z,31.03
2019-01-03T07:37:32.161Z,31.60
2019-01-03T07:40:20.326Z,28.80
2019-01-03T07:43:16.051Z,36.40
2019-01-03T07:46:23.225Z,28.77
2019-01-03T07:49:29.189Z,29.98
2019-01-03T07:52:08.056Z,23.27
2019-01-03T07:54:59.083Z,28.60
2019-01-03T07:57:54.194Z,27.27
2019-01-03T08:00:45.812Z,30.93
2019-01-03T08:03:26.153Z,25.73
2019-01-03T08:06:19.547Z,24.40
2019-01-03T08:08:58.346Z,26.13
2019-01-03T08:11:37.045Z,30.15
2019-01-03T08:14:15.673Z,27.08
2019-01-03T08:17:11.354Z,24.90
2019-01-03T08:20:02.773Z,27.00
2019-01-03T08:22:41.378Z,26.13
2019-01-03T08:25:35.167Z,29.23
2019-01-03T08:28:42.150Z,27.70
2019-01-03T08:31:48.524Z,26.27
2019-01-03T08:34:56.015Z,26.67
2019-01-03T08:37:56.548Z,24.25
2019-01-03T08:40:49.811Z,25.47
2019-01-03T08:43:40.217Z,24.05
2019-01-03T08:46:39.669Z,18.50
2019-01-03T08:49:34.614Z,20.80
2019-01-03T08:52:38.735Z,20.52
2019-01-03T08:55:45.659Z,20.83
2019-01-03T08:58:29.530Z,24.53
2019-01-03T09:01:18.929Z,18.47
2019-01-03T09:03:58.156Z,17.07
2019-01-03T09:06:36.768Z,16.53
2019-01-03T09:09:30.043Z,17.13
2019-01-03T09:12:09.491Z,19.23
2019-01-03T09:15:04.285Z,18.08
2019-01-03T09:17:49.967Z,18.70
2019-01-03T09:20:39.652Z,22.27
2019-01-03T09:23:18.879Z,18.70
2019-01-03T09:26:15.417Z,20.90
2019-01-03T09:29:12.162Z,24.70
2019-01-03T09:32:07.883Z,22.43
2019-01-03T09:34:46.951Z,26.73
2019-01-03T09:37:33.481Z,27.33
2019-01-03T09:40:28.827Z,23.47
2019-01-03T09:43:29.155Z,21.50
2019-01-03T09:46:02.166Z,26.27
2019-01-03T09:48:35.614Z,23.73
2019-01-03T09:51:08.444Z,17.03
2019-01-03T09:53:41.433Z,16.57
2019-01-03T09:56:14.845Z,18.80
2019-01-03T09:58:48.721Z,18.83
2019-01-03T10:01:23.312Z,18.98
2019-01-03T10:03:59.687Z,15.40
2019-01-03T10:06:38.144Z,17.57
2019-01-03T10:09:11.607Z,17.15
2019-01-03T10:11:48.929Z,24.83
2019-01-03T10:14:21.984Z,20.60
2019-01-03T10:16:55.121Z,23.03
2019-01-03T10:19:28.152Z,24.43
2019-01-03T10:22:01.349Z,26.97
2019-01-03T10:24:37.941Z,22.53
2019-01-03T10:27:12.242Z,22.17
2019-01-03T10:29:45.174Z,26.63
2019-01-03T10:32:18.635Z,25.83
2019-01-03T10:34:56.244Z,18.63
2019-01-03T10:37:29.247Z,17.20
2019-01-03T10:40:02.886Z,18.87
2019-01-03T10:42:36.416Z,17.35
2019-01-03T10:45:13.874Z,14.43
2019-01-03T10:47:49.655Z,20.90
2019-01-03T10:50:23.672Z,19.53
2019-01-03T10:52:57.264Z,16.13
2019-01-03T10:55:30.313Z,20.77
2019-01-03T10:58:04.469Z,16.30
2019-01-03T11:00:38.942Z,19.83
2019-01-03T11:03:13.752Z,20.23
2019-01-03T11:05:49.538Z,16.60
2019-01-03T11:08:25.831Z,17.60
2019-01-03T11:11:02.182Z,23.07
2019-01-03T11:13:36.800Z,18.60
2019-01-03T11:16:20.094Z,19.35
2019-01-03T11:18:55.431Z,17.10
2019-01-03T11:21:31.247Z,18.77
2019-01-03T11:24:09.086Z,15.33
2019-01-03T11:26:43.398Z,16.77
2019-01-03T11:29:19.313Z,23.07
2019-01-03T11:31:56.368Z,17.90
2019-01-03T11:34:29.262Z,19.63
2019-01-03T11:37:04.670Z,17.03
2019-01-03T11:39:37.805Z,17.17
2019-01-03T11:42:11.685Z,20.00
2019-01-03T11:44:44.789Z,19.07
2019-01-03T11:47:19.659Z,21.20
2019-01-03T11:49:53.171Z,21.87
2019-01-03T11:52:26.109Z,17.40
2019-01-03T11:54:59.774Z,20.83
2019-01-03T11:57:33.748Z,16.57
2019-01-03T12:00:10.401Z,18.90
2019-01-03T12:02:46.108Z,17.27
2019-01-03T12:05:20.950Z,19.03
2019-01-03T12:07:55.031Z,23.63
2019-01-03T12:10:29.615Z,18.43
2019-01-03T12:13:03.588Z,22.47
2019-01-03T12:15:38.006Z,22.00
2019-01-03T12:18:12.343Z,21.90
2019-01-03T12:20:46.858Z,19.87
2019-01-03T12:23:22.211Z,18.17
2019-01-03T12:25:56.487Z,18.83
2019-01-03T12:28:30.649Z,19.30
2019-01-03T12:31:06.792Z,21.20
2019-01-03T12:33:40.616Z,19.97
2019-01-03T12:36:15.224Z,14.90
2019-01-03T12:39:08.973Z,13.77
2019-01-03T12:41:44.831Z,12.20
2019-01-03T12:44:21.278Z,14.07
2019-01-03T12:46:54.754Z,20.07
2019-01-03T12:49:28.112Z,17.13
2019-01-03T12:52:03.289Z,15.97
2019-01-03T12:54:36.739Z,12.70
2019-01-03T12:57:10.480Z,11.90
2019-01-03T12:59:43.587Z,12.80
2019-01-03T13:02:17.082Z,9.47
2019-01-03T13:04:51.858Z,7.33
2019-01-03T13:07:25.924Z,6.83
2019-01-03T13:10:00.499Z,8.73
2019-01-03T13:12:33.775Z,8.20
2019-01-03T13:15:12.128Z,10.57
2019-01-03T13:17:49.060Z,8.80
2019-01-03T13:20:21.960Z,12.87
2019-01-03T13:22:56.926Z,11.30
2019-01-03T13:25:31.470Z,6.73
2019-01-03T13:28:05.536Z,9.17
2019-01-03T13:30:42.323Z,8.40
2019-01-03T13:33:15.678Z,9.10
2019-01-03T13:36:04.980Z,7.47
2019-01-03T13:38:42.369Z,5.97
2019-01-03T13:41:16.050Z,6.53
2019-01-03T13:43:49.158Z,6.37
2019-01-03T13:46:22.180Z,8.00
2019-01-03T13:48:57.989Z,4.83
2019-01-03T13:51:31.847Z,6.10
2019-01-03T13:54:08.049Z,7.03
2019-01-03T13:56:41.980Z,8.10
2019-01-03T13:59:15.982Z,10.00
2019-01-03T14:01:50.062Z,9.17
2019-01-03T14:04:39.747Z,8.73
2019-01-03T14:07:17.389Z,8.03
2019-01-03T14:09:50.454Z,9.63
2019-01-03T14:12:26.545Z,9.77
2019-01-03T14:15:00.213Z,8.67
2019-01-03T14:17:39.436Z,17.90
2019-01-03T14:20:16.315Z,6.20
2019-01-03T14:22:51.294Z,6.20
2019-01-03T14:25:24.716Z,7.33
2019-01-03T14:27:59.502Z,8.60
2019-01-03T14:30:32.552Z,10.10
2019-01-03T14:33:08.003Z,7.70
2019-01-03T14:35:42.040Z,7.77
2019-01-03T14:38:16.989Z,4.87
2019-01-03T14:40:50.383Z,8.47
2019-01-03T14:43:25.539Z,10.43
2019-01-03T14:45:59.226Z,6.93
2019-01-03T14:48:35.492Z,7.00
2019-01-03T14:51:10.372Z,9.53
2019-01-03T14:53:44.483Z,9.07
2019-01-03T14:56:19.713Z,9.02
2019-01-03T14:58:53.251Z,6.23
2019-01-03T15:01:27.114Z,10.20
2019-01-03T15:04:00.922Z,7.63
2019-01-03T15:06:34.458Z,10.33
2019-01-03T15:09:08.704Z,9.57
2019-01-03T15:11:42.565Z,9.63
2019-01-03T15:14:16.616Z,9.80
2019-01-03T15:16:51.378Z,10.43
2019-01-03T15:19:27.515Z,9.50
2019-01-03T15:22:00.727Z,14.43
2019-01-03T15:24:35.464Z,11.17
2019-01-03T15:27:11.906Z,11.97
2019-01-03T15:29:46.529Z,12.50
2019-01-03T15:32:19.629Z,14.07
2019-01-03T15:34:58.431Z,10.03
2019-01-03T15:37:31.539Z,11.20
2019-01-03T15:40:07.047Z,10.63
2019-01-03T15:42:43.599Z,10.93
2019-01-03T15:45:17.642Z,9.90
2019-01-03T15:47:52.531Z,8.13
2019-01-03T15:50:26.851Z,10.13
2019-01-03T15:52:59.867Z,6.40
2019-01-03T15:55:33.443Z,9.10
2019-01-03T15:58:07.677Z,8.13
2019-01-03T16:00:42.582Z,7.43
2019-01-03T16:03:17.353Z,13.10
2019-01-03T16:05:51.526Z,10.43
2019-01-03T16:08:24.881Z,9.97
2019-01-03T16:11:00.943Z,11.27
2019-01-03T16:13:35.202Z,10.30
2019-01-03T16:16:09.151Z,9.77
2019-01-03T16:18:42.380Z,10.90
2019-01-03T16:21:16.279Z,9.33
2019-01-03T16:23:50.655Z,9.80
2019-01-03T16:26:25.287Z,8.93
2019-01-03T16:29:00.980Z,11.63
2019-01-03T16:31:35.522Z,11.87
2019-01-03T16:34:09.017Z,8.70
2019-01-03T16:36:45.317Z,7.60
2019-01-03T16:39:20.276Z,11.55
2019-01-03T16:41:56.381Z,13.73
2019-01-03T16:44:32.430Z,8.47
2019-01-03T16:47:07.502Z,8.93
2019-01-03T16:49:41.863Z,10.43
2019-01-03T16:52:17.316Z,7.13
2019-01-03T16:54:50.321Z,10.37
2019-01-03T16:57:25.364Z,9.97
2019-01-03T16:59:59.330Z,9.37
2019-01-03T17:02:32.495Z,10.97
2019-01-03T17:05:09.823Z,8.63
2019-01-03T17:07:51.391Z,12.43
2019-01-03T17:10:25.533Z,9.03
2019-01-03T17:13:01.777Z,15.27
2019-01-03T17:15:37.593Z,11.63
2019-01-03T17:18:10.845Z,12.10
2019-01-03T17:20:49.599Z,11.70
2019-01-03T17:23:24.226Z,14.30
2019-01-03T17:25:58.511Z,14.20
2019-01-03T17:28:32.908Z,11.67
2019-01-03T17:31:05.991Z,11.63
2019-01-03T17:33:40.003Z,10.80
2019-01-03T17:36:13.549Z,9.47
2019-01-03T17:38:47.180Z,9.33
2019-01-03T17:41:21.852Z,9.43
2019-01-03T17:43:59.238Z,13.97
2019-01-03T17:46:32.355Z,9.47
2019-01-03T17:49:08.825Z,12.73
2019-01-03T17:51:48.279Z,10.63
2019-01-03T17:54:24.534Z,11.60
2019-01-03T17:56:57.812Z,10.60
2019-01-03T17:59:31.999Z,9.30
2019-01-03T18:02:07.679Z,9.13
2019-01-03T18:04:41.764Z,11.60
2019-01-03T18:07:15.675Z,12.20
2019-01-03T18:09:56.253Z,11.27
2019-01-03T18:12:29.252Z,8.50
2019-01-03T18:15:04.620Z,15.53
2019-01-03T18:17:38.099Z,11.63
2019-01-03T18:20:18.494Z,11.27
2019-01-03T18:22:51.830Z,11.73
2019-01-03T18:25:27.714Z,12.90
2019-01-03T18:28:01.922Z,13.23
2019-01-03T18:30:37.358Z,14.63
2019-01-03T18:33:16.134Z,13.17
2019-01-03T18:35:50.861Z,16.13
2019-01-03T18:38:24.664Z,12.67
2019-01-03T18:40:59.015Z,17.30
2019-01-03T18:43:35.587Z,17.73
2019-01-03T18:46:09.005Z,13.83
2019-01-03T18:48:42.762Z,13.80
2019-01-03T18:51:16.640Z,18.40
2019-01-03T18:53:50.757Z,13.33
2019-01-03T18:56:25.544Z,19.00
2019-01-03T18:58:59.382Z,15.67
2019-01-03T19:01:33.223Z,16.33
2019-01-03T19:04:06.810Z,16.43
2019-01-03T19:06:39.831Z,16.13
2019-01-03T19:09:12.817Z,14.00
2019-01-03T19:11:46.215Z,10.93
2019-01-03T19:14:19.269Z,10.07
2019-01-03T19:16:52.910Z,11.23
2019-01-03T19:19:27.032Z,13.57
2019-01-03T19:22:00.266Z,13.03
2019-01-03T19:24:33.480Z,12.40
2019-01-03T19:27:07.320Z,12.27
2019-01-03T19:29:47.657Z,13.60
2019-01-03T19:32:26.617Z,15.90
2019-01-03T19:35:00.240Z,14.70
2019-01-03T19:37:33.334Z,12.40
2019-01-03T19:40:11.483Z,11.97
2019-01-03T19:42:47.581Z,13.18
2019-01-03T19:45:23.440Z,15.60
2019-01-03T19:48:05.788Z,13.67
2019-01-03T19:50:42.681Z,16.57
2019-01-03T19:53:20.589Z,12.37
2019-01-03T19:55:56.924Z,10.70
2019-01-03T19:58:31.819Z,15.10
2019-01-03T20:01:06.203Z,15.13
2019-01-03T20:03:40.890Z,16.13
2019-01-03T20:06:15.851Z,13.90
2019-01-03T20:08:52.791Z,18.27
2019-01-03T20:11:25.717Z,15.33
2019-01-03T20:13:58.904Z,12.80
2019-01-03T20:16:32.764Z,14.53
2019-01-03T20:19:10.070Z,13.33
2019-01-03T20:21:43.606Z,10.90
2019-01-03T20:24:18.961Z,11.23
2019-01-03T20:26:52.335Z,14.53
2019-01-03T20:29:25.311Z,13.23
2019-01-03T20:31:58.488Z,11.93
2019-01-03T20:34:33.721Z,14.73
2019-01-03T20:37:09.870Z,13.63
2019-01-03T20:39:47.415Z,13.50
2019-01-03T20:42:21.925Z,16.83
2019-01-03T20:44:56.959Z,16.00
2019-01-03T20:47:32.346Z,12.60
2019-01-03T20:50:06.761Z,13.43
2019-01-03T20:52:41.782Z,14.87
2019-01-03T20:55:16.762Z,13.20
2019-01-03T20:57:50.850Z,11.57
2019-01-03T21:00:30.308Z,17.57
2019-01-03T21:03:06.506Z,14.77
2019-01-03T21:05:40.442Z,14.77
2019-01-03T21:08:18.933Z,12.73
2019-01-03T21:10:52.909Z,16.23
2019-01-03T21:13:28.027Z,12.73
2019-01-03T21:16:02.447Z,18.45
2019-01-03T21:18:35.635Z,16.37
2019-01-03T21:21:09.197Z,14.27
2019-01-03T21:23:42.808Z,15.50
2019-01-03T21:26:16.779Z,18.23
2019-01-03T21:28:51.744Z,16.40
2019-01-03T21:31:26.088Z,14.37
2019-01-03T21:34:00.152Z,15.93
2019-01-03T21:36:33.998Z,16.90
2019-01-03T21:39:11.114Z,19.30
2019-01-03T21:41:45.275Z,18.13
2019-01-03T21:44:19.293Z,19.40
2019-01-03T21:46:53.514Z,18.67
2019-01-03T21:49:33.627Z,20.10
2019-01-03T21:52:09.365Z,16.13
2019-01-03T21:54:44.361Z,15.30
2019-01-03T21:57:18.304Z,16.73
2019-01-03T21:59:53.072Z,14.83
2019-01-03T22:02:27.853Z,16.07
2019-01-03T22:05:07.195Z,14.73
2019-01-03T22:07:42.050Z,12.60
2019-01-03T22:10:15.846Z,12.60
2019-01-03T22:12:51.550Z,17.10
2019-01-03T22:15:24.617Z,16.87
2019-01-03T22:18:00.031Z,19.93
2019-01-03T22:20:37.163Z,15.20
2019-01-03T22:23:13.470Z,17.07
2019-01-03T22:25:47.404Z,19.00
2019-01-03T22:28:22.177Z,20.10
2019-01-03T22:30:56.878Z,14.67
2019-01-03T22:33:34.387Z,20.67
2019-01-03T22:36:08.006Z,19.40
2019-01-03T22:38:41.153Z,17.87
2019-01-03T22:41:15.581Z,18.27
2019-01-03T22:43:50.726Z,16.00
2019-01-03T22:46:24.382Z,17.83
2019-01-03T22:48:59.548Z,17.77
2019-01-03T22:51:34.415Z,15.43
2019-01-03T22:54:09.017Z,16.27
2019-01-03T22:56:44.038Z,22.97
2019-01-03T22:59:17.218Z,14.87
2019-01-03T23:01:51.743Z,15.80
2019-01-03T23:04:25.524Z,19.43
2019-01-03T23:06:58.507Z,18.43
2019-01-03T23:09:33.853Z,21.27
2019-01-03T23:12:08.046Z,24.73
2019-01-03T23:14:41.095Z,22.00
2019-01-03T23:17:14.497Z,23.47
2019-01-03T23:19:48.622Z,25.97
2019-01-03T23:22:22.502Z,21.07
2019-01-03T23:24:57.226Z,26.83
2019-01-03T23:27:30.109Z,33.10
2019-01-03T23:30:10.730Z,31.93
2019-01-03T23:32:45.726Z,35.10
2019-01-03T23:35:18.706Z,33.10
2019-01-03T23:37:52.628Z,36.43
2019-01-03T23:40:27.441Z,35.60
2019-01-03T23:43:00.287Z,43.17
2019-01-03T23:45:35.715Z,40.97
2019-01-03T23:48:08.768Z,46.57
2019-01-03T23:50:41.737Z,42.43
2019-01-03T23:53:14.962Z,43.93
2019-01-03T23:55:54.830Z,41.93
2019-01-03T23:58:29.461Z,37.27
